Aérodrome :
LOGIN :

S'inscrire | Disclaimer

   EN    FR    IT 

 










Légende :    VFR   VFR Marginal   IFR   IFR Intensif   IFR Très Intensif
Visi : 
Plafond : 
>= 8 km
>= 3000ft
5 à 8 km
1000 à 3000 ft
1500m à 5 km
500 à 1000 ft
800 à 1500m
200 à 500 ft
< 800m
< 200 ft
Symboles :   Orages  Brouillard  Fortes neiges  Fortes précipitations  Vent > 20 kt
SIGMETs :   Divers  Orages  Givrage  Turbulence  Onde Orograph.  Cendres Volcan.






- Altitude de l'aérodrome : 526 ft
- Code IATA : LTN


EGGW - London Luton

DERNIER METAR :
  • 151520Z AUTO 21009KT 9999 NCD 07/02 Q0997

METARs EXPIRÉS :
  • 151450Z AUTO 23014KT 9999 FEW041 08/02 Q0996
  • 151420Z AUTO 22012KT 9999 FEW046 08/03 Q0996
  • 151350Z AUTO 22013KT 9999 FEW031 08/04 Q0996
  • 151320Z AUTO 23015KT 9999 BKN027 08/04 Q0996
  • 151250Z AUTO 23015KT 9999 SCT028 SCT040 07/04 Q0995

TAF TAF EGGW
Valide du 15 à 12h jusqu'au 16 à 12h UTC


151056Z 1512/1612 21010KT 9999 SCT030
TEMPO 1512/1524 21015G25KT
PROB30
TEMPO 1512/1514 7000 SHRA
PROB30
TEMPO 1520/1524 6000 SHRA BKN009
ATIS : +44 1582 395 204



MET'MAP, la Météo Aéronautique d'un coup d'oeil ! - Copyright ORBIFLY Décembre 2007 - Disclaimer

ORBIFLY MET'MAP TEAM :

Programmation & Développement : Alexandra Zaïnal
Sur une idée originale de : Baudouin d'Aumeries
Assistance à la programmation : Marc-Olivier Méhu
Soutien technique & logistique : Manuel Goepfert

Contact : metmap@orbifly.com




SOURCES & CREDITS :

   NOAA